LiveATC.Net - Listen to live air traffic control over the Internet!

ICAO: LSZB  IATA: BRN   Airport: Bern-Belp Airport
City: Bern
Country: Switzerland   Continent: Europe
LSZB METAR Weather: LSZB 230820Z 13005KT 8000 SCT007 03/01 Q1010 NOSIG
LSZB Flight Activity (FlightAware)
LSZB Webcam:  (Airport Webcams) 
LSZB Tower/App/Dep
Feed Status: UP   Listeners: 1
Listen right in your browser - requires Flash (in browser, requires Flash)
Click here to listen with your own player (launches your MP3 player)
LSZB Tower/App/Dep Audio Archives
LSZB Arrival/Departure (left channel)127.325
LSZB Tower (right channel)121.025


Unauthorized use prohibited. See Terms of Service

Find LiveATC Audio Streams

Airport/ARTCC Code

Frequency Search
(e.g., 124.400, 128.75)
Site-wide search

Browse LiveATC Feeds
LiveATC Coverage Map
Top 50 LiveATC Feeds
Bad Weather Areas

Offer a LiveATC Feed
Press Inquiries

LiveATC on iPhone
LiveATC on Android

Windows Phone
Windows 8/10

LiveATC Mobile
(Mobile browser)

ATC Audio Archives
Interesting Recordings

LiveATC Forums

Home Page
Make a Donation
Terms of Use
Privacy Policy

Canadian Air Freqs


FAA Airport Status
Nat'l Airspace Status
Arrival Demand Charts

Server Software By: